sensor_id;sensor_type;location;lat;lon;timestamp;P1;durP1;ratioP1;P2;durP2;ratioP2
65641;SDS011;52340;-6.720;108.544;2023-04-01T00:05:48;43.35;;;29.45;;
65641;SDS011;52340;-6.720;108.544;2023-04-01T00:06:49;43.47;;;30.80;;
65641;SDS011;52340;-6.720;108.544;2023-04-01T00:07:51;44.10;;;30.25;;
65641;SDS011;52340;-6.720;108.544;2023-04-01T00:08:53;45.10;;;31.65;;
65641;SDS011;52340;-6.720;108.544;2023-04-01T00:10:59;43.53;;;30.80;;
65641;SDS011;52340;-6.720;108.544;2023-04-01T00:12:00;46.38;;;31.95;;
65641;SDS011;52340;-6.720;108.544;2023-04-01T00:15:16;48.33;;;31.08;;
65641;SDS011;52340;-6.720;108.544;2023-04-01T00:16:18;45.67;;;31.45;;
65641;SDS011;52340;-6.720;108.544;2023-04-01T00:17:19;46.47;;;31.63;;
65641;SDS011;52340;-6.720;108.544;2023-04-01T00:24:07;44.88;;;31.52;;
65641;SDS011;52340;-6.720;108.544;2023-04-01T00:27:29;48.20;;;32.30;;
65641;SDS011;52340;-6.720;108.544;2023-04-01T00:33:11;44.58;;;32.45;;
65641;SDS011;52340;-6.720;108.544;2023-04-01T00:34:13;54.03;;;35.60;;
65641;SDS011;52340;-6.720;108.544;2023-04-01T00:37:34;46.67;;;35.00;;
65641;SDS011;52340;-6.720;108.544;2023-04-01T00:48:48;76.40;;;50.05;;
65641;SDS011;52340;-6.720;108.544;2023-04-01T00:52:11;76.15;;;47.65;;
65641;SDS011;52340;-6.720;108.544;2023-04-01T01:00:13;61.13;;;42.70;;
65641;SDS011;52340;-6.720;108.544;2023-04-01T01:01:16;60.45;;;41.88;;
65641;SDS011;52340;-6.720;108.544;2023-04-01T01:02:18;55.50;;;40.05;;
65641;SDS011;52340;-6.720;108.544;2023-04-01T01:03:20;55.10;;;38.38;;
65641;SDS011;52340;-6.720;108.544;2023-04-01T01:06:42;44.83;;;31.60;;
65641;SDS011;52340;-6.720;108.544;2023-04-01T01:07:46;44.08;;;30.33;;
65641;SDS011;52340;-6.720;108.544;2023-04-01T01:09:10;42.75;;;30.98;;
65641;SDS011;52340;-6.720;108.544;2023-04-01T01:10:18;42.70;;;30.25;;
65641;SDS011;52340;-6.720;108.544;2023-04-01T01:11:22;42.63;;;29.48;;
65641;SDS011;52340;-6.720;108.544;2023-04-01T01:12:29;39.38;;;27.45;;
65641;SDS011;52340;-6.720;108.544;2023-04-01T01:13:35;38.80;;;25.48;;
65641;SDS011;52340;-6.720;108.544;2023-04-01T01:14:44;42.00;;;28.10;;
65641;SDS011;52340;-6.720;108.544;2023-04-01T01:15:55;38.17;;;28.83;;
65641;SDS011;52340;-6.720;108.544;2023-04-01T01:18:00;39.93;;;29.07;;
65641;SDS011;52340;-6.720;108.544;2023-04-01T01:19:07;36.97;;;27.08;;
65641;SDS011;52340;-6.720;108.544;2023-04-01T01:21:33;33.95;;;25.70;;
65641;SDS011;52340;-6.720;108.544;2023-04-01T01:28:40;35.58;;;25.98;;
65641;SDS011;52340;-6.720;108.544;2023-04-01T02:17:32;18.00;;;10.90;;
65641;SDS011;52340;-6.720;108.544;2023-04-01T02:20:56;16.85;;;11.23;;
65641;SDS011;52340;-6.720;108.544;2023-04-01T02:32:28;20.08;;;11.10;;
65641;SDS011;52340;-6.720;108.544;2023-04-01T02:38:07;19.45;;;11.45;;
65641;SDS011;52340;-6.720;108.544;2023-04-01T02:39:09;17.80;;;12.02;;
65641;SDS011;52340;-6.720;108.544;2023-04-01T02:47:34;20.50;;;12.07;;
65641;SDS011;52340;-6.720;108.544;2023-04-01T02:48:36;17.48;;;11.70;;
65641;SDS011;52340;-6.720;108.544;2023-04-01T02:50:38;17.20;;;11.43;;
65641;SDS011;52340;-6.720;108.544;2023-04-01T02:57:32;16.60;;;10.70;;
65641;SDS011;52340;-6.720;108.544;2023-04-01T02:58:34;15.68;;;10.88;;
65641;SDS011;52340;-6.720;108.544;2023-04-01T02:59:35;18.40;;;11.00;;
65641;SDS011;52340;-6.720;108.544;2023-04-01T03:00:37;16.23;;;11.30;;
65641;SDS011;52340;-6.720;108.544;2023-04-01T03:01:39;16.67;;;10.32;;
65641;SDS011;52340;-6.720;108.544;2023-04-01T03:02:40;16.60;;;10.95;;
65641;SDS011;52340;-6.720;108.544;2023-04-01T03:03:42;17.52;;;11.18;;
65641;SDS011;52340;-6.720;108.544;2023-04-01T03:04:44;15.80;;;10.90;;
65641;SDS011;52340;-6.720;108.544;2023-04-01T03:05:46;15.93;;;10.65;;
65641;SDS011;52340;-6.720;108.544;2023-04-01T03:06:48;14.98;;;10.40;;
65641;SDS011;52340;-6.720;108.544;2023-04-01T03:07:49;15.70;;;10.88;;
65641;SDS011;52340;-6.720;108.544;2023-04-01T03:08:51;16.02;;;10.98;;
65641;SDS011;52340;-6.720;108.544;2023-04-01T03:09:53;17.35;;;10.80;;
65641;SDS011;52340;-6.720;108.544;2023-04-01T03:10:54;18.95;;;10.63;;
65641;SDS011;52340;-6.720;108.544;2023-04-01T03:11:56;15.32;;;10.43;;
65641;SDS011;52340;-6.720;108.544;2023-04-01T03:13:00;16.67;;;10.65;;
65641;SDS011;52340;-6.720;108.544;2023-04-01T03:14:02;18.60;;;11.02;;
65641;SDS011;52340;-6.720;108.544;2023-04-01T03:15:05;18.00;;;10.85;;
65641;SDS011;52340;-6.720;108.544;2023-04-01T03:16:07;17.70;;;10.85;;
65641;SDS011;52340;-6.720;108.544;2023-04-01T03:17:09;17.00;;;11.05;;
65641;SDS011;52340;-6.720;108.544;2023-04-01T03:18:10;15.32;;;10.80;;
65641;SDS011;52340;-6.720;108.544;2023-04-01T03:19:12;16.83;;;10.98;;
65641;SDS011;52340;-6.720;108.544;2023-04-01T03:20:15;17.15;;;10.27;;
65641;SDS011;52340;-6.720;108.544;2023-04-01T03:21:17;15.85;;;9.90;;
65641;SDS011;52340;-6.720;108.544;2023-04-01T03:22:19;17.50;;;9.80;;
65641;SDS011;52340;-6.720;108.544;2023-04-01T03:23:21;14.98;;;9.70;;
65641;SDS011;52340;-6.720;108.544;2023-04-01T03:24:23;13.85;;;9.73;;
65641;SDS011;52340;-6.720;108.544;2023-04-01T03:25:25;15.73;;;9.60;;
65641;SDS011;52340;-6.720;108.544;2023-04-01T03:26:26;14.90;;;9.38;;
65641;SDS011;52340;-6.720;108.544;2023-04-01T03:27:28;14.65;;;9.38;;
65641;SDS011;52340;-6.720;108.544;2023-04-01T03:28:31;15.75;;;11.27;;
65641;SDS011;52340;-6.720;108.544;2023-04-01T03:29:33;19.85;;;12.63;;
65641;SDS011;52340;-6.720;108.544;2023-04-01T03:30:35;19.45;;;13.32;;
65641;SDS011;52340;-6.720;108.544;2023-04-01T03:31:36;20.38;;;12.25;;
65641;SDS011;52340;-6.720;108.544;2023-04-01T03:32:38;18.52;;;12.18;;
65641;SDS011;52340;-6.720;108.544;2023-04-01T03:33:40;19.48;;;11.95;;
65641;SDS011;52340;-6.720;108.544;2023-04-01T03:34:42;17.42;;;11.05;;
65641;SDS011;52340;-6.720;108.544;2023-04-01T03:35:43;15.27;;;10.43;;
65641;SDS011;52340;-6.720;108.544;2023-04-01T03:36:45;15.30;;;9.82;;
65641;SDS011;52340;-6.720;108.544;2023-04-01T03:37:47;18.58;;;9.93;;
65641;SDS011;52340;-6.720;108.544;2023-04-01T03:38:48;15.60;;;9.27;;
65641;SDS011;52340;-6.720;108.544;2023-04-01T03:39:50;16.13;;;10.00;;
65641;SDS011;52340;-6.720;108.544;2023-04-01T03:40:52;20.92;;;12.75;;
65641;SDS011;52340;-6.720;108.544;2023-04-01T03:41:54;18.80;;;12.02;;
65641;SDS011;52340;-6.720;108.544;2023-04-01T03:42:55;18.40;;;12.05;;
65641;SDS011;52340;-6.720;108.544;2023-04-01T03:43:59;19.02;;;11.50;;
65641;SDS011;52340;-6.720;108.544;2023-04-01T03:45:00;16.33;;;12.13;;
65641;SDS011;52340;-6.720;108.544;2023-04-01T03:46:02;18.00;;;12.02;;
65641;SDS011;52340;-6.720;108.544;2023-04-01T03:47:04;18.80;;;11.73;;
65641;SDS011;52340;-6.720;108.544;2023-04-01T03:48:06;15.50;;;11.20;;
65641;SDS011;52340;-6.720;108.544;2023-04-01T03:49:08;16.77;;;10.82;;
65641;SDS011;52340;-6.720;108.544;2023-04-01T03:51:15;18.13;;;10.90;;
65641;SDS011;52340;-6.720;108.544;2023-04-01T03:52:17;16.58;;;10.82;;
65641;SDS011;52340;-6.720;108.544;2023-04-01T03:53:18;15.20;;;10.95;;
65641;SDS011;52340;-6.720;108.544;2023-04-01T03:54:20;17.70;;;10.57;;
65641;SDS011;52340;-6.720;108.544;2023-04-01T03:55:22;19.45;;;11.13;;
65641;SDS011;52340;-6.720;108.544;2023-04-01T03:56:23;16.10;;;11.00;;
65641;SDS011;52340;-6.720;108.544;2023-04-01T03:57:25;16.30;;;10.57;;
65641;SDS011;52340;-6.720;108.544;2023-04-01T03:58:27;18.55;;;10.85;;
65641;SDS011;52340;-6.720;108.544;2023-04-01T03:59:31;17.73;;;10.70;;
65641;SDS011;52340;-6.720;108.544;2023-04-01T04:00:33;15.60;;;10.30;;
65641;SDS011;52340;-6.720;108.544;2023-04-01T04:01:34;17.60;;;11.48;;
65641;SDS011;52340;-6.720;108.544;2023-04-01T04:02:36;19.42;;;12.18;;
65641;SDS011;52340;-6.720;108.544;2023-04-01T04:03:38;19.50;;;12.10;;
65641;SDS011;52340;-6.720;108.544;2023-04-01T04:04:40;20.60;;;12.20;;
65641;SDS011;52340;-6.720;108.544;2023-04-01T04:05:46;16.50;;;10.95;;
65641;SDS011;52340;-6.720;108.544;2023-04-01T04:06:48;19.10;;;12.05;;
65641;SDS011;52340;-6.720;108.544;2023-04-01T04:07:50;20.00;;;12.68;;
65641;SDS011;52340;-6.720;108.544;2023-04-01T04:08:52;18.85;;;12.20;;
65641;SDS011;52340;-6.720;108.544;2023-04-01T04:09:54;23.40;;;13.60;;
65641;SDS011;52340;-6.720;108.544;2023-04-01T04:10:55;20.27;;;13.50;;
65641;SDS011;52340;-6.720;108.544;2023-04-01T04:11:57;21.17;;;12.70;;
65641;SDS011;52340;-6.720;108.544;2023-04-01T04:12:59;19.60;;;12.80;;
65641;SDS011;52340;-6.720;108.544;2023-04-01T04:14:01;22.27;;;13.13;;
65641;SDS011;52340;-6.720;108.544;2023-04-01T04:15:05;20.55;;;13.52;;
65641;SDS011;52340;-6.720;108.544;2023-04-01T04:17:11;18.65;;;12.23;;
65641;SDS011;52340;-6.720;108.544;2023-04-01T04:18:12;22.67;;;13.38;;
65641;SDS011;52340;-6.720;108.544;2023-04-01T04:19:14;20.73;;;12.10;;
65641;SDS011;52340;-6.720;108.544;2023-04-01T04:20:16;18.60;;;12.52;;
65641;SDS011;52340;-6.720;108.544;2023-04-01T04:21:18;23.50;;;12.77;;
65641;SDS011;52340;-6.720;108.544;2023-04-01T04:22:19;20.48;;;12.55;;
65641;SDS011;52340;-6.720;108.544;2023-04-01T04:23:21;19.38;;;11.77;;
65641;SDS011;52340;-6.720;108.544;2023-04-01T04:24:23;20.20;;;11.55;;
65641;SDS011;52340;-6.720;108.544;2023-04-01T04:25:25;18.77;;;11.40;;
65641;SDS011;52340;-6.720;108.544;2023-04-01T04:26:27;17.75;;;11.48;;
65641;SDS011;52340;-6.720;108.544;2023-04-01T04:27:29;18.30;;;11.73;;
65641;SDS011;52340;-6.720;108.544;2023-04-01T04:28:30;20.00;;;12.45;;
65641;SDS011;52340;-6.720;108.544;2023-04-01T04:29:32;21.05;;;13.20;;
65641;SDS011;52340;-6.720;108.544;2023-04-01T04:30:36;19.63;;;12.57;;
65641;SDS011;52340;-6.720;108.544;2023-04-01T04:31:38;21.23;;;12.43;;
65641;SDS011;52340;-6.720;108.544;2023-04-01T04:32:40;34.97;;;16.83;;
65641;SDS011;52340;-6.720;108.544;2023-04-01T04:33:42;21.40;;;13.82;;
65641;SDS011;52340;-6.720;108.544;2023-04-01T04:34:43;20.27;;;12.48;;
65641;SDS011;52340;-6.720;108.544;2023-04-01T04:35:45;18.90;;;13.00;;
65641;SDS011;52340;-6.720;108.544;2023-04-01T04:36:47;17.90;;;12.40;;
65641;SDS011;52340;-6.720;108.544;2023-04-01T04:37:49;18.55;;;12.27;;
65641;SDS011;52340;-6.720;108.544;2023-04-01T04:38:50;19.45;;;12.32;;
65641;SDS011;52340;-6.720;108.544;2023-04-01T04:39:52;20.63;;;12.70;;
65641;SDS011;52340;-6.720;108.544;2023-04-01T04:41:58;17.45;;;11.60;;
65641;SDS011;52340;-6.720;108.544;2023-04-01T04:43:00;27.05;;;15.35;;
65641;SDS011;52340;-6.720;108.544;2023-04-01T04:44:02;24.30;;;14.73;;
65641;SDS011;52340;-6.720;108.544;2023-04-01T04:45:04;22.13;;;14.30;;
65641;SDS011;52340;-6.720;108.544;2023-04-01T04:46:08;21.98;;;13.95;;
65641;SDS011;52340;-6.720;108.544;2023-04-01T04:47:10;20.27;;;12.73;;
65641;SDS011;52340;-6.720;108.544;2023-04-01T04:48:13;19.95;;;12.63;;
65641;SDS011;52340;-6.720;108.544;2023-04-01T04:49:16;18.48;;;12.70;;
65641;SDS011;52340;-6.720;108.544;2023-04-01T04:50:17;19.58;;;13.27;;
65641;SDS011;52340;-6.720;108.544;2023-04-01T04:51:19;17.20;;;13.15;;
65641;SDS011;52340;-6.720;108.544;2023-04-01T04:52:22;22.63;;;13.27;;
65641;SDS011;52340;-6.720;108.544;2023-04-01T04:53:23;20.92;;;13.77;;
65641;SDS011;52340;-6.720;108.544;2023-04-01T04:54:25;19.23;;;13.43;;
65641;SDS011;52340;-6.720;108.544;2023-04-01T04:55:27;20.10;;;13.60;;
65641;SDS011;52340;-6.720;108.544;2023-04-01T04:56:28;20.02;;;13.80;;
65641;SDS011;52340;-6.720;108.544;2023-04-01T04:57:31;19.00;;;13.55;;
65641;SDS011;52340;-6.720;108.544;2023-04-01T04:58:33;21.30;;;13.95;;
65641;SDS011;52340;-6.720;108.544;2023-04-01T04:59:35;18.20;;;13.38;;
65641;SDS011;52340;-6.720;108.544;2023-04-01T05:00:36;21.27;;;13.63;;
65641;SDS011;52340;-6.720;108.544;2023-04-01T05:01:40;21.23;;;13.93;;
65641;SDS011;52340;-6.720;108.544;2023-04-01T05:02:42;21.70;;;13.43;;
65641;SDS011;52340;-6.720;108.544;2023-04-01T05:03:44;23.60;;;13.90;;
65641;SDS011;52340;-6.720;108.544;2023-04-01T05:04:46;25.55;;;16.33;;
65641;SDS011;52340;-6.720;108.544;2023-04-01T05:05:48;20.15;;;12.82;;
65641;SDS011;52340;-6.720;108.544;2023-04-01T05:06:50;23.98;;;15.63;;
65641;SDS011;52340;-6.720;108.544;2023-04-01T05:07:52;20.40;;;14.45;;
65641;SDS011;52340;-6.720;108.544;2023-04-01T05:08:54;24.17;;;16.58;;
65641;SDS011;52340;-6.720;108.544;2023-04-01T05:09:55;21.95;;;14.88;;
65641;SDS011;52340;-6.720;108.544;2023-04-01T05:10:57;23.10;;;15.88;;
65641;SDS011;52340;-6.720;108.544;2023-04-01T05:11:59;26.90;;;15.80;;
65641;SDS011;52340;-6.720;108.544;2023-04-01T05:13:01;20.83;;;15.48;;
65641;SDS011;52340;-6.720;108.544;2023-04-01T05:14:03;25.08;;;15.52;;
65641;SDS011;52340;-6.720;108.544;2023-04-01T05:15:06;22.20;;;14.98;;
65641;SDS011;52340;-6.720;108.544;2023-04-01T05:16:09;22.52;;;14.65;;
65641;SDS011;52340;-6.720;108.544;2023-04-01T05:17:12;21.92;;;15.20;;
65641;SDS011;52340;-6.720;108.544;2023-04-01T05:18:15;21.55;;;14.45;;
65641;SDS011;52340;-6.720;108.544;2023-04-01T05:19:18;21.33;;;15.40;;
65641;SDS011;52340;-6.720;108.544;2023-04-01T05:20:20;24.08;;;16.25;;
65641;SDS011;52340;-6.720;108.544;2023-04-01T05:21:22;23.85;;;16.65;;
65641;SDS011;52340;-6.720;108.544;2023-04-01T05:23:28;25.45;;;17.15;;
65641;SDS011;52340;-6.720;108.544;2023-04-01T05:24:31;30.05;;;20.05;;
65641;SDS011;52340;-6.720;108.544;2023-04-01T05:26:32;22.83;;;16.37;;
65641;SDS011;52340;-6.720;108.544;2023-04-01T05:27:34;24.25;;;16.73;;
65641;SDS011;52340;-6.720;108.544;2023-04-01T05:28:35;25.65;;;17.23;;
65641;SDS011;52340;-6.720;108.544;2023-04-01T05:29:37;27.27;;;17.67;;
65641;SDS011;52340;-6.720;108.544;2023-04-01T05:30:39;27.55;;;18.05;;
65641;SDS011;52340;-6.720;108.544;2023-04-01T05:32:47;26.35;;;17.58;;
65641;SDS011;52340;-6.720;108.544;2023-04-01T05:33:48;26.23;;;17.75;;
65641;SDS011;52340;-6.720;108.544;2023-04-01T05:36:05;24.75;;;17.70;;
65641;SDS011;52340;-6.720;108.544;2023-04-01T05:37:07;23.65;;;17.15;;
65641;SDS011;52340;-6.720;108.544;2023-04-01T05:38:09;28.88;;;18.20;;
65641;SDS011;52340;-6.720;108.544;2023-04-01T05:42:19;22.35;;;15.82;;
65641;SDS011;52340;-6.720;108.544;2023-04-01T05:43:21;24.42;;;14.73;;
65641;SDS011;52340;-6.720;108.544;2023-04-01T05:46:31;22.25;;;15.48;;
65641;SDS011;52340;-6.720;108.544;2023-04-01T05:47:33;23.00;;;15.98;;
65641;SDS011;52340;-6.720;108.544;2023-04-01T05:48:36;23.75;;;16.38;;
65641;SDS011;52340;-6.720;108.544;2023-04-01T05:49:38;24.88;;;17.15;;
65641;SDS011;52340;-6.720;108.544;2023-04-01T05:50:40;25.13;;;17.48;;
65641;SDS011;52340;-6.720;108.544;2023-04-01T05:51:42;27.70;;;17.65;;
65641;SDS011;52340;-6.720;108.544;2023-04-01T05:52:44;25.95;;;16.70;;
65641;SDS011;52340;-6.720;108.544;2023-04-01T05:53:46;23.85;;;15.25;;
65641;SDS011;52340;-6.720;108.544;2023-04-01T05:54:47;22.80;;;16.65;;
65641;SDS011;52340;-6.720;108.544;2023-04-01T05:55:49;20.92;;;15.48;;
65641;SDS011;52340;-6.720;108.544;2023-04-01T05:57:51;21.95;;;14.98;;
65641;SDS011;52340;-6.720;108.544;2023-04-01T05:58:53;19.77;;;13.50;;
65641;SDS011;52340;-6.720;108.544;2023-04-01T05:59:55;20.92;;;15.10;;
65641;SDS011;52340;-6.720;108.544;2023-04-01T06:01:00;22.13;;;16.20;;
65641;SDS011;52340;-6.720;108.544;2023-04-01T06:02:02;20.02;;;15.25;;
65641;SDS011;52340;-6.720;108.544;2023-04-01T06:03:03;20.55;;;14.52;;
65641;SDS011;52340;-6.720;108.544;2023-04-01T06:07:23;20.75;;;14.73;;
65641;SDS011;52340;-6.720;108.544;2023-04-01T06:08:25;21.55;;;14.55;;
65641;SDS011;52340;-6.720;108.544;2023-04-01T06:09:27;20.83;;;15.55;;
65641;SDS011;52340;-6.720;108.544;2023-04-01T06:11:35;24.95;;;17.27;;
65641;SDS011;52340;-6.720;108.544;2023-04-01T06:16:14;25.00;;;17.58;;
65641;SDS011;52340;-6.720;108.544;2023-04-01T06:19:36;28.67;;;20.05;;
65641;SDS011;52340;-6.720;108.544;2023-04-01T06:20:43;26.35;;;21.25;;
65641;SDS011;52340;-6.720;108.544;2023-04-01T06:22:56;40.45;;;25.70;;
65641;SDS011;52340;-6.720;108.544;2023-04-01T06:24:07;34.45;;;25.10;;
65641;SDS011;52340;-6.720;108.544;2023-04-01T06:26:21;28.48;;;20.58;;
65641;SDS011;52340;-6.720;108.544;2023-04-01T06:27:31;19.90;;;12.50;;
65641;SDS011;52340;-6.720;108.544;2023-04-01T06:30:23;17.27;;;8.90;;
65641;SDS011;52340;-6.720;108.544;2023-04-01T06:31:36;15.55;;;8.90;;
65641;SDS011;52340;-6.720;108.544;2023-04-01T06:32:58;9.50;;;6.55;;
65641;SDS011;52340;-6.720;108.544;2023-04-01T06:34:17;13.55;;;8.93;;
65641;SDS011;52340;-6.720;108.544;2023-04-01T06:35:30;11.18;;;8.20;;
65641;SDS011;52340;-6.720;108.544;2023-04-01T06:36:39;14.38;;;8.50;;
65641;SDS011;52340;-6.720;108.544;2023-04-01T06:38:48;13.27;;;8.00;;
65641;SDS011;52340;-6.720;108.544;2023-04-01T06:41:16;12.10;;;6.13;;
65641;SDS011;52340;-6.720;108.544;2023-04-01T06:42:37;9.40;;;4.95;;
65641;SDS011;52340;-6.720;108.544;2023-04-01T06:43:47;10.25;;;5.90;;
65641;SDS011;52340;-6.720;108.544;2023-04-01T06:45:58;15.80;;;9.80;;
65641;SDS011;52340;-6.720;108.544;2023-04-01T06:47:04;19.38;;;12.63;;
65641;SDS011;52340;-6.720;108.544;2023-04-01T06:48:16;18.42;;;12.15;;
65641;SDS011;52340;-6.720;108.544;2023-04-01T06:49:44;19.33;;;12.32;;
65641;SDS011;52340;-6.720;108.544;2023-04-01T06:50:52;16.23;;;11.20;;
65641;SDS011;52340;-6.720;108.544;2023-04-01T06:51:58;13.40;;;9.15;;
65641;SDS011;52340;-6.720;108.544;2023-04-01T06:53:03;13.32;;;8.27;;
65641;SDS011;52340;-6.720;108.544;2023-04-01T06:54:11;12.90;;;7.65;;
65641;SDS011;52340;-6.720;108.544;2023-04-01T06:56:15;11.10;;;6.75;;
65641;SDS011;52340;-6.720;108.544;2023-04-01T06:58:20;10.40;;;6.20;;
65641;SDS011;52340;-6.720;108.544;2023-04-01T06:59:22;11.00;;;6.97;;
65641;SDS011;52340;-6.720;108.544;2023-04-01T07:00:26;10.63;;;6.68;;
65641;SDS011;52340;-6.720;108.544;2023-04-01T07:01:29;12.73;;;7.25;;
65641;SDS011;52340;-6.720;108.544;2023-04-01T07:02:36;11.15;;;7.00;;
65641;SDS011;52340;-6.720;108.544;2023-04-01T07:03:40;11.00;;;7.03;;
65641;SDS011;52340;-6.720;108.544;2023-04-01T07:04:44;11.35;;;6.60;;
65641;SDS011;52340;-6.720;108.544;2023-04-01T07:05:47;10.45;;;6.90;;
65641;SDS011;52340;-6.720;108.544;2023-04-01T07:07:50;10.03;;;6.67;;
65641;SDS011;52340;-6.720;108.544;2023-04-01T07:08:54;10.80;;;6.47;;
65641;SDS011;52340;-6.720;108.544;2023-04-01T07:10:00;10.27;;;6.63;;
65641;SDS011;52340;-6.720;108.544;2023-04-01T07:11:05;10.48;;;6.60;;
65641;SDS011;52340;-6.720;108.544;2023-04-01T07:12:10;12.55;;;6.63;;
65641;SDS011;52340;-6.720;108.544;2023-04-01T07:13:17;11.98;;;7.60;;
65641;SDS011;52340;-6.720;108.544;2023-04-01T07:14:19;11.23;;;7.30;;
65641;SDS011;52340;-6.720;108.544;2023-04-01T07:15:24;10.77;;;7.45;;
65641;SDS011;52340;-6.720;108.544;2023-04-01T07:16:27;10.43;;;7.15;;
65641;SDS011;52340;-6.720;108.544;2023-04-01T07:17:32;10.88;;;6.97;;
65641;SDS011;52340;-6.720;108.544;2023-04-01T07:18:37;11.13;;;7.38;;
65641;SDS011;52340;-6.720;108.544;2023-04-01T07:19:39;12.07;;;7.55;;
65641;SDS011;52340;-6.720;108.544;2023-04-01T07:20:43;11.50;;;8.05;;
65641;SDS011;52340;-6.720;108.544;2023-04-01T07:21:46;10.32;;;7.50;;
65641;SDS011;52340;-6.720;108.544;2023-04-01T07:22:49;13.10;;;8.80;;
65641;SDS011;52340;-6.720;108.544;2023-04-01T07:27:10;11.85;;;8.75;;
65641;SDS011;52340;-6.720;108.544;2023-04-01T07:28:14;13.25;;;9.00;;
65641;SDS011;52340;-6.720;108.544;2023-04-01T07:29:15;12.68;;;8.93;;
65641;SDS011;52340;-6.720;108.544;2023-04-01T07:35:43;12.35;;;9.13;;
65641;SDS011;52340;-6.720;108.544;2023-04-01T07:36:48;12.63;;;8.98;;
65641;SDS011;52340;-6.720;108.544;2023-04-01T07:37:55;13.18;;;8.50;;
65641;SDS011;52340;-6.720;108.544;2023-04-01T07:39:04;11.60;;;8.60;;
65641;SDS011;52340;-6.720;108.544;2023-04-01T07:42:19;11.45;;;9.07;;
65641;SDS011;52340;-6.720;108.544;2023-04-01T07:43:32;11.05;;;9.10;;
65641;SDS011;52340;-6.720;108.544;2023-04-01T07:45:50;12.88;;;9.38;;
65641;SDS011;52340;-6.720;108.544;2023-04-01T07:47:01;14.35;;;9.40;;
65641;SDS011;52340;-6.720;108.544;2023-04-01T07:49:15;11.83;;;9.43;;
65641;SDS011;52340;-6.720;108.544;2023-04-01T07:50:21;13.18;;;9.50;;
65641;SDS011;52340;-6.720;108.544;2023-04-01T07:52:31;14.10;;;9.52;;
65641;SDS011;52340;-6.720;108.544;2023-04-01T07:53:37;13.63;;;9.40;;
65641;SDS011;52340;-6.720;108.544;2023-04-01T07:56:57;13.40;;;10.00;;
65641;SDS011;52340;-6.720;108.544;2023-04-01T07:58:06;15.75;;;9.95;;
65641;SDS011;52340;-6.720;108.544;2023-04-01T08:00:16;13.20;;;9.95;;
65641;SDS011;52340;-6.720;108.544;2023-04-01T08:01:23;14.50;;;9.73;;
65641;SDS011;52340;-6.720;108.544;2023-04-01T08:02:34;17.70;;;9.90;;
65641;SDS011;52340;-6.720;108.544;2023-04-01T08:03:47;13.30;;;9.60;;
65641;SDS011;52340;-6.720;108.544;2023-04-01T08:05:53;14.80;;;9.97;;
65641;SDS011;52340;-6.720;108.544;2023-04-01T08:06:59;13.45;;;9.75;;
65641;SDS011;52340;-6.720;108.544;2023-04-01T08:08:05;14.40;;;9.60;;
65641;SDS011;52340;-6.720;108.544;2023-04-01T08:09:10;14.30;;;9.95;;
65641;SDS011;52340;-6.720;108.544;2023-04-01T08:11:24;14.65;;;10.10;;
65641;SDS011;52340;-6.720;108.544;2023-04-01T08:12:29;15.77;;;10.18;;
65641;SDS011;52340;-6.720;108.544;2023-04-01T08:15:46;16.27;;;10.77;;
65641;SDS011;52340;-6.720;108.544;2023-04-01T08:16:51;15.10;;;10.73;;
65641;SDS011;52340;-6.720;108.544;2023-04-01T08:19:03;15.05;;;10.38;;
65641;SDS011;52340;-6.720;108.544;2023-04-01T08:21:17;15.38;;;10.55;;
65641;SDS011;52340;-6.720;108.544;2023-04-01T08:23:26;19.88;;;12.60;;
65641;SDS011;52340;-6.720;108.544;2023-04-01T08:25:34;21.60;;;11.70;;
65641;SDS011;52340;-6.720;108.544;2023-04-01T08:27:46;18.63;;;12.45;;
65641;SDS011;52340;-6.720;108.544;2023-04-01T08:28:52;19.85;;;12.38;;
65641;SDS011;52340;-6.720;108.544;2023-04-01T08:29:57;17.20;;;11.32;;
65641;SDS011;52340;-6.720;108.544;2023-04-01T08:31:02;20.30;;;12.18;;
65641;SDS011;52340;-6.720;108.544;2023-04-01T08:32:07;23.73;;;11.20;;
65641;SDS011;52340;-6.720;108.544;2023-04-01T08:33:13;18.10;;;11.65;;
65641;SDS011;52340;-6.720;108.544;2023-04-01T08:34:19;16.75;;;10.93;;
65641;SDS011;52340;-6.720;108.544;2023-04-01T08:36:26;17.02;;;10.63;;
65641;SDS011;52340;-6.720;108.544;2023-04-01T08:37:30;19.42;;;11.52;;
65641;SDS011;52340;-6.720;108.544;2023-04-01T08:38:36;15.30;;;10.50;;
65641;SDS011;52340;-6.720;108.544;2023-04-01T08:39:40;17.42;;;10.55;;
65641;SDS011;52340;-6.720;108.544;2023-04-01T08:42:22;14.38;;;10.07;;
65641;SDS011;52340;-6.720;108.544;2023-04-01T08:45:07;17.65;;;10.52;;
65641;SDS011;52340;-6.720;108.544;2023-04-01T08:46:35;19.10;;;10.57;;
65641;SDS011;52340;-6.720;108.544;2023-04-01T08:47:56;17.25;;;9.75;;
65641;SDS011;52340;-6.720;108.544;2023-04-01T08:49:19;17.42;;;8.93;;
65641;SDS011;52340;-6.720;108.544;2023-04-01T08:52:15;17.52;;;8.25;;
65641;SDS011;52340;-6.720;108.544;2023-04-01T08:53:33;12.85;;;7.60;;
65641;SDS011;52340;-6.720;108.544;2023-04-01T08:54:44;16.13;;;7.63;;
65641;SDS011;52340;-6.720;108.544;2023-04-01T08:55:56;17.48;;;7.97;;
65641;SDS011;52340;-6.720;108.544;2023-04-01T08:58:20;15.43;;;7.70;;
65641;SDS011;52340;-6.720;108.544;2023-04-01T09:00:30;17.63;;;8.52;;
65641;SDS011;52340;-6.720;108.544;2023-04-01T09:01:38;14.80;;;8.35;;
65641;SDS011;52340;-6.720;108.544;2023-04-01T09:02:56;16.98;;;8.27;;
65641;SDS011;52340;-6.720;108.544;2023-04-01T09:04:22;17.40;;;8.13;;
65641;SDS011;52340;-6.720;108.544;2023-04-01T09:05:36;19.25;;;7.72;;
65641;SDS011;52340;-6.720;108.544;2023-04-01T09:06:47;15.52;;;8.05;;
65641;SDS011;52340;-6.720;108.544;2023-04-01T09:08:00;18.95;;;7.63;;
65641;SDS011;52340;-6.720;108.544;2023-04-01T09:10:24;15.38;;;7.13;;
65641;SDS011;52340;-6.720;108.544;2023-04-01T09:11:42;14.60;;;7.28;;
65641;SDS011;52340;-6.720;108.544;2023-04-01T09:14:25;13.52;;;6.40;;
65641;SDS011;52340;-6.720;108.544;2023-04-01T09:18:14;13.15;;;6.88;;
65641;SDS011;52340;-6.720;108.544;2023-04-01T09:19:24;13.80;;;6.53;;
65641;SDS011;52340;-6.720;108.544;2023-04-01T09:20:40;12.40;;;6.20;;
65641;SDS011;52340;-6.720;108.544;2023-04-01T09:21:53;11.88;;;6.20;;
65641;SDS011;52340;-6.720;108.544;2023-04-01T09:23:11;15.38;;;6.55;;
65641;SDS011;52340;-6.720;108.544;2023-04-01T09:24:22;16.30;;;6.25;;
65641;SDS011;52340;-6.720;108.544;2023-04-01T09:26:37;13.27;;;6.80;;
65641;SDS011;52340;-6.720;108.544;2023-04-01T09:27:49;13.77;;;6.78;;
65641;SDS011;52340;-6.720;108.544;2023-04-01T09:28:59;14.88;;;6.80;;
65641;SDS011;52340;-6.720;108.544;2023-04-01T09:30:10;12.15;;;6.63;;
65641;SDS011;52340;-6.720;108.544;2023-04-01T09:31:38;13.45;;;6.43;;
65641;SDS011;52340;-6.720;108.544;2023-04-01T09:35:34;11.80;;;6.00;;
65641;SDS011;52340;-6.720;108.544;2023-04-01T09:36:43;13.32;;;6.40;;
65641;SDS011;52340;-6.720;108.544;2023-04-01T09:37:49;14.35;;;5.95;;
65641;SDS011;52340;-6.720;108.544;2023-04-01T09:38:56;14.63;;;6.90;;
65641;SDS011;52340;-6.720;108.544;2023-04-01T09:40:08;13.35;;;6.30;;
65641;SDS011;52340;-6.720;108.544;2023-04-01T09:41:24;12.65;;;6.05;;
65641;SDS011;52340;-6.720;108.544;2023-04-01T09:44:03;12.90;;;6.20;;